createdAt,value
2022-08-21T00:00:29.995Z,101557.25
2022-08-21T00:03:02.259Z,101558.25
2022-08-21T00:05:32.230Z,101554.19
2022-08-21T00:08:01.105Z,101547.97
2022-08-21T00:10:28.797Z,101551.41
2022-08-21T00:12:56.765Z,101548.72
2022-08-21T00:15:29.737Z,101550.25
2022-08-21T00:17:58.290Z,101549.13
2022-08-21T00:20:26.335Z,101539.81
2022-08-21T00:22:54.130Z,101538.69
2022-08-21T00:25:26.087Z,101540.31
2022-08-21T00:27:54.201Z,101541.38
2022-08-21T00:30:24.619Z,101543.50
2022-08-21T00:32:53.997Z,101544.00
2022-08-21T00:35:26.079Z,101546.38
2022-08-21T00:37:53.655Z,101543.94
2022-08-21T00:40:34.962Z,101544.91
2022-08-21T00:43:04.434Z,101544.59
2022-08-21T00:45:32.777Z,101530.31
2022-08-21T00:48:00.266Z,101534.78
2022-08-21T00:50:33.216Z,101533.59
2022-08-21T00:53:03.444Z,101526.50
2022-08-21T00:55:34.955Z,101531.88
2022-08-21T00:58:04.735Z,101532.63
2022-08-21T01:00:36.494Z,101531.72
2022-08-21T01:03:10.870Z,101536.44
2022-08-21T01:05:39.201Z,101536.75
2022-08-21T01:08:08.863Z,101533.84
2022-08-21T01:10:38.374Z,101529.75
2022-08-21T01:13:08.889Z,101535.13
2022-08-21T01:15:39.426Z,101528.00
2022-08-21T01:18:09.588Z,101540.22
2022-08-21T01:20:38.902Z,101529.88
2022-08-21T01:23:07.904Z,101536.78
2022-08-21T01:25:36.327Z,101535.53
2022-08-21T01:28:13.801Z,101535.66
2022-08-21T01:30:44.398Z,101536.41
2022-08-21T01:33:12.135Z,101534.53
2022-08-21T01:35:39.778Z,101544.59
2022-08-21T01:38:08.553Z,101536.13
2022-08-21T01:40:35.988Z,101537.03
2022-08-21T01:43:03.917Z,101541.25
2022-08-21T01:45:32.118Z,101539.03
2022-08-21T01:47:59.504Z,101533.91
2022-08-21T01:50:27.029Z,101541.66
2022-08-21T01:52:54.433Z,101530.56
2022-08-21T01:55:24.062Z,101535.34
2022-08-21T01:57:51.803Z,101536.97
2022-08-21T02:00:26.521Z,101529.16
2022-08-21T02:02:54.147Z,101531.13
2022-08-21T02:05:21.835Z,101535.00
2022-08-21T02:07:53.353Z,101528.09
2022-08-21T02:10:27.453Z,101525.97
2022-08-21T02:12:56.171Z,101519.78
2022-08-21T02:15:24.377Z,101522.72
2022-08-21T02:17:56.560Z,101519.44
2022-08-21T02:20:29.878Z,101520.50
2022-08-21T02:22:57.955Z,101527.50
2022-08-21T02:25:28.894Z,101521.66
2022-08-21T02:27:56.961Z,101513.94
2022-08-21T02:30:32.169Z,101511.50
2022-08-21T02:33:00.379Z,101508.00
2022-08-21T02:35:28.601Z,101503.91
2022-08-21T02:38:01.151Z,101501.38
2022-08-21T02:40:34.849Z,101497.88
2022-08-21T02:43:04.896Z,101499.25
2022-08-21T02:45:33.390Z,101500.16
2022-08-21T02:48:05.405Z,101495.38
2022-08-21T02:50:36.524Z,101492.47
2022-08-21T02:53:05.503Z,101490.50
2022-08-21T02:55:37.092Z,101486.66
2022-08-21T02:58:06.573Z,101491.41
2022-08-21T03:00:37.358Z,101479.53
2022-08-21T03:03:06.589Z,101480.00
2022-08-21T03:05:38.563Z,101481.63
2022-08-21T03:08:11.226Z,101492.38
2022-08-21T03:10:46.016Z,101482.09
2022-08-21T03:13:14.974Z,101490.97
2022-08-21T03:15:43.226Z,101483.25
2022-08-21T03:18:11.669Z,101482.31
2022-08-21T03:20:41.374Z,101479.84
2022-08-21T03:23:13.367Z,101478.97
2022-08-21T03:25:47.005Z,101483.75
2022-08-21T03:28:19.227Z,101470.06
2022-08-21T03:30:49.601Z,101470.56
2022-08-21T03:33:17.652Z,101477.53
2022-08-21T03:35:56.553Z,101473.16
2022-08-21T03:38:26.609Z,101467.78
2022-08-21T03:40:56.507Z,101461.22
2022-08-21T03:43:23.964Z,101462.31
2022-08-21T03:45:52.653Z,101455.84
2022-08-21T03:48:20.728Z,101462.88
2022-08-21T03:50:50.264Z,101462.56
2022-08-21T03:53:18.240Z,101471.66
2022-08-21T03:55:47.602Z,101472.94
2022-08-21T03:58:18.377Z,101475.53
2022-08-21T04:00:47.520Z,101475.19
2022-08-21T04:03:15.258Z,101482.78
2022-08-21T04:05:43.085Z,101481.66
2022-08-21T04:08:10.563Z,101482.84
2022-08-21T04:10:40.059Z,101491.22
2022-08-21T04:13:08.753Z,101485.16
2022-08-21T04:15:37.519Z,101479.78
2022-08-21T04:18:06.492Z,101486.22
2022-08-21T04:20:34.940Z,101487.63
2022-08-21T04:23:03.301Z,101483.03
2022-08-21T04:25:30.980Z,101490.06
2022-08-21T04:27:58.953Z,101491.22
2022-08-21T04:30:28.199Z,101483.72
2022-08-21T04:32:59.320Z,101494.03
2022-08-21T04:35:29.117Z,101488.78
2022-08-21T04:37:57.439Z,101488.44
2022-08-21T04:40:28.306Z,101489.22
2022-08-21T04:43:01.547Z,101488.78
2022-08-21T04:45:33.386Z,101487.13
2022-08-21T04:48:07.827Z,101484.56
2022-08-21T04:50:44.179Z,101487.97
2022-08-21T04:53:21.547Z,101492.38
2022-08-21T04:55:49.286Z,101491.59
2022-08-21T04:58:20.067Z,101493.22
2022-08-21T05:00:48.193Z,101502.31
2022-08-21T05:03:18.848Z,101501.63
2022-08-21T05:05:46.590Z,101507.06
2022-08-21T05:08:20.122Z,101515.00
2022-08-21T05:10:47.665Z,101515.13
2022-08-21T05:13:15.438Z,101507.06
2022-08-21T05:15:43.359Z,101508.84
2022-08-21T05:18:10.744Z,101505.22
2022-08-21T05:20:40.128Z,101502.97
2022-08-21T05:23:10.787Z,101509.75
2022-08-21T05:25:38.290Z,101513.38
2022-08-21T05:28:07.330Z,101516.06
2022-08-21T05:30:36.555Z,101507.69
2022-08-21T05:33:06.652Z,101509.78
2022-08-21T05:35:35.458Z,101518.63
2022-08-21T05:38:05.608Z,101516.19
2022-08-21T05:40:42.228Z,101513.03
2022-08-21T05:43:09.601Z,101514.09
2022-08-21T05:45:41.781Z,101517.44
2022-08-21T05:48:16.090Z,101519.56
2022-08-21T05:50:45.247Z,101512.97
2022-08-21T05:53:15.325Z,101517.88
2022-08-21T05:55:46.222Z,101517.41
2022-08-21T05:58:16.064Z,101515.56
2022-08-21T06:00:45.469Z,101517.63
2022-08-21T06:03:16.522Z,101513.81
2022-08-21T06:05:44.369Z,101523.63
2022-08-21T06:08:14.395Z,101520.44
2022-08-21T06:10:41.829Z,101512.47
2022-08-21T06:13:09.213Z,101523.91
2022-08-21T06:15:36.791Z,101517.72
2022-08-21T06:18:04.633Z,101507.63
2022-08-21T06:20:32.991Z,101513.69
2022-08-21T06:23:00.612Z,101510.50
2022-08-21T06:25:30.164Z,101515.91
2022-08-21T06:28:03.516Z,101517.81
2022-08-21T06:30:33.542Z,101511.44
2022-08-21T06:33:01.414Z,101508.75
2022-08-21T06:35:30.076Z,101518.06
2022-08-21T06:37:58.450Z,101518.38
2022-08-21T06:40:26.253Z,101508.88
2022-08-21T06:42:55.182Z,101514.34
2022-08-21T06:45:23.623Z,101520.66
2022-08-21T06:47:51.081Z,101518.38
2022-08-21T06:50:18.678Z,101512.84
2022-08-21T06:52:45.997Z,101517.13
2022-08-21T06:55:13.574Z,101507.44
2022-08-21T06:57:52.345Z,101505.25
2022-08-21T07:00:22.457Z,101513.63
2022-08-21T07:02:49.870Z,101509.44
2022-08-21T07:05:18.400Z,101506.66
2022-08-21T07:07:47.349Z,101514.91
2022-08-21T07:10:22.378Z,101507.22
2022-08-21T07:12:50.802Z,101503.47
2022-08-21T07:15:28.109Z,101509.09
2022-08-21T07:17:55.378Z,101501.34
2022-08-21T07:20:22.757Z,101505.22
2022-08-21T07:22:50.105Z,101507.50
2022-08-21T07:25:17.447Z,101501.47
2022-08-21T07:27:44.759Z,101501.34
2022-08-21T07:30:12.819Z,101498.16
2022-08-21T07:32:41.526Z,101500.53
2022-08-21T07:35:09.327Z,101497.31
2022-08-21T07:37:36.842Z,101505.53
2022-08-21T07:40:06.362Z,101498.91
2022-08-21T07:42:33.902Z,101502.88
2022-08-21T07:45:01.220Z,101494.41
2022-08-21T07:47:29.589Z,101506.50
2022-08-21T07:50:12.659Z,101493.00
2022-08-21T07:52:41.198Z,101506.22
2022-08-21T07:55:11.876Z,101502.53
2022-08-21T07:57:39.747Z,101499.75
2022-08-21T08:00:12.544Z,101503.06
2022-08-21T08:02:41.158Z,101493.81
2022-08-21T08:05:12.635Z,101502.94
2022-08-21T08:07:40.755Z,101500.16
2022-08-21T08:10:11.069Z,101499.25
2022-08-21T08:12:42.280Z,101495.19
2022-08-21T08:15:14.054Z,101499.47
2022-08-21T08:17:41.392Z,101496.44
2022-08-21T08:20:14.159Z,101496.06
2022-08-21T08:22:42.319Z,101498.34
2022-08-21T08:25:13.682Z,101504.25
2022-08-21T08:27:41.864Z,101490.34
2022-08-21T08:30:13.778Z,101490.38
2022-08-21T08:32:42.198Z,101499.16
2022-08-21T08:35:12.802Z,101493.56
2022-08-21T08:37:41.970Z,101492.38
2022-08-21T08:40:14.788Z,101494.88
2022-08-21T08:42:42.296Z,101489.78
2022-08-21T08:45:17.418Z,101497.97
2022-08-21T08:47:50.248Z,101488.97
2022-08-21T08:50:24.820Z,101486.88
2022-08-21T08:53:01.984Z,101486.00
2022-08-21T08:55:36.942Z,101491.69
2022-08-21T08:58:05.078Z,101483.25
2022-08-21T09:00:33.565Z,101492.88
2022-08-21T09:03:03.949Z,101483.47
2022-08-21T09:05:44.069Z,101483.25
2022-08-21T09:08:32.375Z,101480.44
2022-08-21T09:11:05.971Z,101471.63
2022-08-21T09:13:50.601Z,101476.88
2022-08-21T09:16:41.852Z,101474.75
2022-08-21T09:19:30.171Z,101470.84
2022-08-21T09:22:14.706Z,101464.69
2022-08-21T09:24:59.894Z,101473.94
2022-08-21T09:27:27.323Z,101469.78
2022-08-21T09:29:55.798Z,101455.91
2022-08-21T09:32:37.597Z,101472.63
2022-08-21T09:35:10.816Z,101472.84
2022-08-21T09:37:53.760Z,101468.72
2022-08-21T09:40:34.352Z,101468.03
2022-08-21T09:43:05.619Z,101464.66
2022-08-21T09:45:35.017Z,101451.88
2022-08-21T09:48:18.785Z,101459.94
2022-08-21T09:50:48.626Z,101456.38
2022-08-21T09:53:33.711Z,101463.28
2022-08-21T09:56:35.468Z,101452.84
2022-08-21T09:59:14.757Z,101452.75
2022-08-21T10:01:46.537Z,101457.00
2022-08-21T10:04:15.132Z,101454.59
2022-08-21T10:06:42.793Z,101442.63
2022-08-21T10:09:20.940Z,101443.75
2022-08-21T10:12:11.367Z,101452.13
2022-08-21T10:14:54.537Z,101453.78
2022-08-21T10:17:37.414Z,101458.00
2022-08-21T10:20:12.875Z,101445.31
2022-08-21T10:22:50.233Z,101441.41
2022-08-21T10:25:31.102Z,101436.63
2022-08-21T10:28:09.028Z,101437.56
2022-08-21T10:31:01.297Z,101443.50
2022-08-21T10:33:45.618Z,101450.63
2022-08-21T10:36:21.611Z,101448.59
2022-08-21T10:39:26.827Z,101443.47
2022-08-21T10:42:30.550Z,101438.03
2022-08-21T10:45:15.363Z,101442.34
2022-08-21T10:47:49.870Z,101437.28
2022-08-21T10:50:31.103Z,101431.44
2022-08-21T10:53:16.954Z,101430.56
2022-08-21T10:55:55.930Z,101432.00
2022-08-21T10:58:31.564Z,101439.94
2022-08-21T11:01:10.196Z,101440.94
2022-08-21T11:03:44.504Z,101434.94
2022-08-21T11:06:20.292Z,101436.13
2022-08-21T11:08:55.356Z,101432.66
2022-08-21T11:11:35.798Z,101430.19
2022-08-21T11:14:19.281Z,101433.06
2022-08-21T11:16:54.322Z,101431.38
2022-08-21T11:19:29.964Z,101419.41
2022-08-21T11:22:08.909Z,101428.47
2022-08-21T11:24:46.053Z,101430.84
2022-08-21T11:27:26.344Z,101425.94
2022-08-21T11:29:59.454Z,101434.28
2022-08-21T11:32:55.717Z,101425.00
2022-08-21T11:35:44.925Z,101428.38
2022-08-21T11:38:28.957Z,101426.69
2022-08-21T11:41:26.193Z,101427.72
2022-08-21T11:44:09.651Z,101428.16
2022-08-21T11:46:59.586Z,101427.94
2022-08-21T11:49:50.021Z,101429.06
2022-08-21T11:52:26.510Z,101423.41
2022-08-21T11:55:01.874Z,101432.72
2022-08-21T11:57:39.459Z,101427.06
2022-08-21T12:00:14.680Z,101421.81
2022-08-21T12:02:49.633Z,101426.56
2022-08-21T12:05:32.584Z,101426.47
2022-08-21T12:08:08.320Z,101428.47
2022-08-21T12:10:41.202Z,101426.06
2022-08-21T12:13:14.609Z,101418.00
2022-08-21T12:15:42.066Z,101431.81
2022-08-21T12:18:29.730Z,101423.22
2022-08-21T12:21:06.641Z,101424.84
2022-08-21T12:23:46.673Z,101428.31
2022-08-21T12:26:29.404Z,101429.59
2022-08-21T12:29:15.181Z,101416.66
2022-08-21T12:31:56.726Z,101413.75
2022-08-21T12:34:35.320Z,101419.38
2022-08-21T12:37:12.708Z,101418.56
2022-08-21T12:39:45.732Z,101422.16
2022-08-21T12:42:21.397Z,101421.78
2022-08-21T12:44:55.389Z,101415.41
2022-08-21T12:47:32.377Z,101413.09
2022-08-21T12:50:07.350Z,101417.69
2022-08-21T12:52:41.495Z,101412.97
2022-08-21T12:55:13.503Z,101409.09
2022-08-21T12:57:43.032Z,101413.63
2022-08-21T13:00:15.687Z,101412.25
2022-08-21T13:02:49.323Z,101403.31
2022-08-21T13:05:30.291Z,101412.13
2022-08-21T13:07:58.365Z,101403.75
2022-08-21T13:10:30.217Z,101394.88
2022-08-21T13:13:02.572Z,101402.75
2022-08-21T13:15:47.650Z,101400.16
2022-08-21T13:18:24.852Z,101404.91
2022-08-21T13:21:06.425Z,101398.28
2022-08-21T13:23:34.248Z,101398.66
2022-08-21T13:26:03.827Z,101396.53
2022-08-21T13:28:37.502Z,101398.38
2022-08-21T13:31:11.232Z,101389.72
2022-08-21T13:33:42.150Z,101392.44
2022-08-21T13:36:20.177Z,101396.97
2022-08-21T13:38:48.031Z,101390.13
2022-08-21T13:41:25.255Z,101386.09
2022-08-21T13:44:03.400Z,101390.00
2022-08-21T13:46:35.062Z,101387.41
2022-08-21T13:49:05.933Z,101387.06
2022-08-21T13:51:35.809Z,101381.03
2022-08-21T13:54:16.332Z,101382.63
2022-08-21T13:56:46.973Z,101388.06
2022-08-21T13:59:27.004Z,101389.03
2022-08-21T14:02:00.066Z,101384.47
2022-08-21T14:04:36.053Z,101387.47
2022-08-21T14:07:19.024Z,101385.28
2022-08-21T14:09:48.274Z,101385.28
2022-08-21T14:12:25.156Z,101386.09
2022-08-21T14:14:56.067Z,101384.25
2022-08-21T14:17:34.021Z,101385.06
2022-08-21T14:20:02.429Z,101384.13
2022-08-21T14:22:40.659Z,101382.19
2022-08-21T14:25:13.675Z,101388.69
2022-08-21T14:27:50.937Z,101387.22
2022-08-21T14:30:22.913Z,101384.63
2022-08-21T14:32:51.226Z,101381.75
2022-08-21T14:35:18.841Z,101381.97
2022-08-21T14:37:54.983Z,101390.66
2022-08-21T14:40:25.731Z,101386.50
2022-08-21T14:42:54.284Z,101395.78
2022-08-21T14:45:29.230Z,101391.09
2022-08-21T14:47:57.593Z,101390.09
2022-08-21T14:50:28.042Z,101392.94
2022-08-21T14:52:57.261Z,101393.72
2022-08-21T14:55:24.854Z,101391.16
2022-08-21T14:57:55.728Z,101394.66
2022-08-21T15:00:35.694Z,101392.31
2022-08-21T15:03:03.707Z,101389.00
2022-08-21T15:05:33.788Z,101397.91
2022-08-21T15:08:04.050Z,101388.97
2022-08-21T15:10:34.937Z,101396.25
2022-08-21T15:13:03.163Z,101390.41
2022-08-21T15:15:36.359Z,101393.84
2022-08-21T15:18:04.026Z,101390.69
2022-08-21T15:20:31.742Z,101388.28
2022-08-21T15:22:59.320Z,101385.25
2022-08-21T15:25:28.634Z,101381.94
2022-08-21T15:27:56.774Z,101384.16
2022-08-21T15:30:24.366Z,101378.19
2022-08-21T15:32:51.750Z,101385.06
2022-08-21T15:35:19.594Z,101381.31
2022-08-21T15:37:46.983Z,101392.34
2022-08-21T15:40:15.230Z,101387.00
2022-08-21T15:42:44.699Z,101386.28
2022-08-21T15:45:13.782Z,101380.94
2022-08-21T15:47:46.143Z,101381.34
2022-08-21T15:50:14.915Z,101383.16
2022-08-21T15:52:42.369Z,101378.97
2022-08-21T15:55:11.030Z,101387.84
2022-08-21T15:57:58.101Z,101382.25
2022-08-21T16:00:27.251Z,101385.00
2022-08-21T16:02:58.364Z,101398.31
2022-08-21T16:05:26.041Z,101386.63
2022-08-21T16:07:53.945Z,101381.16
2022-08-21T16:10:29.837Z,101388.25
2022-08-21T16:13:04.987Z,101381.97
2022-08-21T16:15:32.610Z,101377.34
2022-08-21T16:18:00.146Z,101382.78
2022-08-21T16:20:30.801Z,101373.50
2022-08-21T16:22:59.570Z,101376.22
2022-08-21T16:25:29.003Z,101377.53
2022-08-21T16:28:02.503Z,101378.34
2022-08-21T16:30:30.955Z,101390.25
2022-08-21T16:33:00.858Z,101385.22
2022-08-21T16:35:28.227Z,101381.66
2022-08-21T16:37:56.229Z,101388.59
2022-08-21T16:40:24.236Z,101383.66
2022-08-21T16:42:52.267Z,101383.47
2022-08-21T16:45:21.926Z,101385.16
2022-08-21T16:47:49.442Z,101375.25
2022-08-21T16:50:22.388Z,101385.22
2022-08-21T16:52:50.189Z,101388.66
2022-08-21T16:55:18.217Z,101389.44
2022-08-21T16:57:45.698Z,101393.44
2022-08-21T17:00:14.515Z,101393.63
2022-08-21T17:02:48.397Z,101388.31
2022-08-21T17:05:16.969Z,101386.69
2022-08-21T17:07:45.279Z,101392.72
2022-08-21T17:10:15.903Z,101397.75
2022-08-21T17:12:47.123Z,101392.81
2022-08-21T17:15:23.393Z,101390.50
2022-08-21T17:17:53.424Z,101387.94
2022-08-21T17:20:21.559Z,101387.78
2022-08-21T17:22:49.172Z,101403.13
2022-08-21T17:25:16.716Z,101408.50
2022-08-21T17:27:47.444Z,101408.00
2022-08-21T17:30:16.601Z,101412.44
2022-08-21T17:32:46.330Z,101408.47
2022-08-21T17:35:15.843Z,101423.06
2022-08-21T17:37:43.629Z,101416.72
2022-08-21T17:40:15.228Z,101421.88
2022-08-21T17:42:45.107Z,101421.59
2022-08-21T17:45:17.582Z,101436.47
2022-08-21T17:47:45.106Z,101433.66
2022-08-21T17:50:22.599Z,101434.59
2022-08-21T17:52:50.508Z,101432.56
2022-08-21T17:55:20.340Z,101436.00
2022-08-21T17:57:51.353Z,101435.31
2022-08-21T18:00:22.686Z,101444.16
2022-08-21T18:03:01.897Z,101450.75
2022-08-21T18:05:31.060Z,101450.03
2022-08-21T18:07:58.769Z,101448.72
2022-08-21T18:10:26.950Z,101452.81
2022-08-21T18:12:54.695Z,101452.91
2022-08-21T18:15:22.647Z,101459.22
2022-08-21T18:17:53.395Z,101454.16
2022-08-21T18:20:24.046Z,101456.38
2022-08-21T18:22:52.971Z,101466.72
2022-08-21T18:25:20.740Z,101471.13
2022-08-21T18:27:49.903Z,101465.19
2022-08-21T18:30:22.531Z,101467.38
2022-08-21T18:32:52.413Z,101467.38
2022-08-21T18:35:20.157Z,101468.53
2022-08-21T18:37:47.602Z,101487.22
2022-08-21T18:40:16.451Z,101483.19
2022-08-21T18:42:55.205Z,101484.88
2022-08-21T18:45:24.555Z,101488.13
2022-08-21T18:47:55.446Z,101485.19
2022-08-21T18:50:27.522Z,101486.53
2022-08-21T18:52:56.872Z,101499.84
2022-08-21T18:55:27.391Z,101508.81
2022-08-21T18:57:57.316Z,101503.91
2022-08-21T19:00:30.287Z,101501.22
2022-08-21T19:02:58.632Z,101508.81
2022-08-21T19:05:27.876Z,101511.78
2022-08-21T19:07:56.514Z,101509.63
2022-08-21T19:10:28.604Z,101512.06
2022-08-21T19:12:59.606Z,101510.19
2022-08-21T19:15:28.619Z,101517.22
2022-08-21T19:17:58.963Z,101515.34
2022-08-21T19:20:30.750Z,101512.34
2022-08-21T19:22:58.387Z,101516.94
2022-08-21T19:25:33.418Z,101524.53
2022-08-21T19:28:03.523Z,101526.72
2022-08-21T19:30:45.742Z,101526.47
2022-08-21T19:33:36.003Z,101527.50
2022-08-21T19:36:04.577Z,101523.97
2022-08-21T19:38:32.079Z,101524.78
2022-08-21T19:41:02.046Z,101524.53
2022-08-21T19:43:32.236Z,101523.19
2022-08-21T19:46:00.855Z,101530.22
2022-08-21T19:48:28.304Z,101533.47
2022-08-21T19:50:55.673Z,101537.53
2022-08-21T19:53:23.068Z,101535.94
2022-08-21T19:55:50.850Z,101535.66
2022-08-21T19:58:34.407Z,101537.25
2022-08-21T20:01:03.857Z,101542.38
2022-08-21T20:03:39.158Z,101540.75
2022-08-21T20:06:10.671Z,101548.59
2022-08-21T20:08:38.051Z,101539.41
2022-08-21T20:11:06.182Z,101537.50
2022-08-21T20:13:35.830Z,101540.72
2022-08-21T20:16:09.094Z,101543.41
2022-08-21T20:18:40.552Z,101549.38
2022-08-21T20:21:13.110Z,101548.28
2022-08-21T20:23:48.946Z,101546.38
2022-08-21T20:26:17.442Z,101539.88
2022-08-21T20:28:50.450Z,101547.19
2022-08-21T20:31:20.541Z,101552.88
2022-08-21T20:33:49.615Z,101547.16
2022-08-21T20:36:17.182Z,101549.06
2022-08-21T20:38:48.120Z,101548.25
2022-08-21T20:41:21.042Z,101548.25
2022-08-21T20:43:51.136Z,101546.91
2022-08-21T20:46:24.287Z,101542.50
2022-08-21T20:48:52.639Z,101538.44
2022-08-21T20:51:28.307Z,101549.81
2022-08-21T20:54:04.595Z,101538.41
2022-08-21T20:56:45.469Z,101542.47
2022-08-21T20:59:31.605Z,101547.06
2022-08-21T21:02:17.072Z,101547.03
2022-08-21T21:04:54.806Z,101551.34
2022-08-21T21:07:30.088Z,101545.94
2022-08-21T21:10:03.168Z,101544.56
2022-08-21T21:12:40.493Z,101546.97
2022-08-21T21:15:23.394Z,101546.41
2022-08-21T21:18:07.319Z,101548.28
2022-08-21T21:20:49.995Z,101550.44
2022-08-21T21:23:27.638Z,101552.84
2022-08-21T21:26:06.580Z,101552.56
2022-08-21T21:28:48.800Z,101545.50
2022-08-21T21:31:18.103Z,101546.28
2022-08-21T21:33:47.023Z,101553.25
2022-08-21T21:36:28.530Z,101558.06
2022-08-21T21:39:09.176Z,101561.81
2022-08-21T21:41:54.330Z,101562.28
2022-08-21T21:45:01.400Z,101560.59
2022-08-21T21:47:47.962Z,101561.94
2022-08-21T21:50:45.159Z,101565.13
2022-08-21T21:53:42.662Z,101565.97
2022-08-21T21:59:41.042Z,101569.25
2022-08-21T22:02:31.289Z,101573.63
2022-08-21T22:05:09.756Z,101572.03
2022-08-21T22:07:47.779Z,101574.75
2022-08-21T22:10:34.095Z,101570.94
2022-08-21T22:13:26.582Z,101574.22
2022-08-21T22:15:55.232Z,101579.66
2022-08-21T22:18:29.583Z,101579.66
2022-08-21T22:21:05.299Z,101574.25
2022-08-21T22:23:40.022Z,101587.50
2022-08-21T22:26:14.530Z,101584.53
2022-08-21T22:28:48.534Z,101580.50
2022-08-21T22:31:21.206Z,101574.84
2022-08-21T22:34:06.991Z,101592.13
2022-08-21T22:36:56.366Z,101585.06
2022-08-21T22:39:33.184Z,101580.25
2022-08-21T22:42:10.899Z,101578.09
2022-08-21T22:44:51.741Z,101576.19
2022-08-21T22:47:29.996Z,101584.34
2022-08-21T22:50:04.327Z,101580.84
2022-08-21T22:52:37.157Z,101577.13
2022-08-21T22:55:24.675Z,101581.69
2022-08-21T22:58:08.342Z,101583.00
2022-08-21T23:00:56.814Z,101577.59
2022-08-21T23:03:33.531Z,101577.59
2022-08-21T23:06:12.827Z,101587.94
2022-08-21T23:08:44.208Z,101587.09
2022-08-21T23:11:15.857Z,101587.34
2022-08-21T23:13:48.621Z,101585.47
2022-08-21T23:19:54.811Z,101586.22
2022-08-21T23:22:39.579Z,101575.66
2022-08-21T23:25:42.614Z,101576.97
2022-08-21T23:28:26.284Z,101574.50
2022-08-21T23:31:09.283Z,101578.03
2022-08-21T23:33:59.534Z,101579.09
2022-08-21T23:37:07.858Z,101578.53
2022-08-21T23:39:55.798Z,101579.03
2022-08-21T23:42:45.760Z,101578.50
2022-08-21T23:45:38.482Z,101579.53
2022-08-21T23:48:29.398Z,101576.28
2022-08-21T23:51:13.158Z,101583.84
2022-08-21T23:54:02.295Z,101584.94
2022-08-21T23:56:51.851Z,101584.69
2022-08-21T23:59:39.975Z,101581.69
